sensor_id;sensor_type;location;lat;lon;timestamp;pressure;altitude;pressure_sealevel;temperature;humidity
61472;BME280;47337;54.068;12.114;2023-05-20T00:00:13;102334.06;;;9.65;84.52
61472;BME280;47337;54.068;12.114;2023-05-20T00:02:38;102326.56;;;9.51;84.98
61472;BME280;47337;54.068;12.114;2023-05-20T00:05:06;102331.09;;;9.55;85.63
61472;BME280;47337;54.068;12.114;2023-05-20T00:07:32;102338.59;;;9.46;86.26
61472;BME280;47337;54.068;12.114;2023-05-20T00:09:57;102349.22;;;9.49;87.00
61472;BME280;47337;54.068;12.114;2023-05-20T00:12:25;102345.69;;;9.49;87.64
61472;BME280;47337;54.068;12.114;2023-05-20T00:14:50;102351.00;;;9.50;88.30
61472;BME280;47337;54.068;12.114;2023-05-20T00:17:15;102349.84;;;9.44;89.02
61472;BME280;47337;54.068;12.114;2023-05-20T00:19:43;102358.38;;;9.38;89.81
61472;BME280;47337;54.068;12.114;2023-05-20T00:22:11;102357.34;;;9.35;90.58
61472;BME280;47337;54.068;12.114;2023-05-20T00:24:39;102354.78;;;9.36;91.14
61472;BME280;47337;54.068;12.114;2023-05-20T00:27:07;102349.41;;;9.33;91.60
61472;BME280;47337;54.068;12.114;2023-05-20T00:29:33;102350.13;;;9.29;92.12
61472;BME280;47337;54.068;12.114;2023-05-20T00:31:58;102354.09;;;9.20;92.88
61472;BME280;47337;54.068;12.114;2023-05-20T00:34:26;102351.47;;;9.20;93.17
61472;BME280;47337;54.068;12.114;2023-05-20T00:36:52;102353.56;;;9.28;93.64
61472;BME280;47337;54.068;12.114;2023-05-20T00:39:20;102353.13;;;9.17;93.99
61472;BME280;47337;54.068;12.114;2023-05-20T00:41:45;102358.44;;;9.19;94.53
61472;BME280;47337;54.068;12.114;2023-05-20T00:44:10;102356.78;;;9.21;95.26
61472;BME280;47337;54.068;12.114;2023-05-20T00:46:40;102353.97;;;9.16;95.88
61472;BME280;47337;54.068;12.114;2023-05-20T00:49:08;102354.47;;;9.08;96.58
61472;BME280;47337;54.068;12.114;2023-05-20T00:51:36;102357.56;;;9.18;97.36
61472;BME280;47337;54.068;12.114;2023-05-20T00:54:04;102360.16;;;9.18;98.30
61472;BME280;47337;54.068;12.114;2023-05-20T00:56:31;102366.25;;;9.17;98.71
61472;BME280;47337;54.068;12.114;2023-05-20T00:58:57;102362.72;;;9.17;99.51
61472;BME280;47337;54.068;12.114;2023-05-20T01:01:22;102364.44;;;9.16;100.00
61472;BME280;47337;54.068;12.114;2023-05-20T01:03:53;102365.72;;;9.26;100.00
61472;BME280;47337;54.068;12.114;2023-05-20T01:06:18;102365.56;;;9.23;100.00
61472;BME280;47337;54.068;12.114;2023-05-20T01:08:48;102368.34;;;9.26;100.00
61472;BME280;47337;54.068;12.114;2023-05-20T01:11:30;102367.38;;;9.24;100.00
61472;BME280;47337;54.068;12.114;2023-05-20T01:14:05;102365.41;;;9.18;100.00
61472;BME280;47337;54.068;12.114;2023-05-20T01:16:34;102374.84;;;9.15;100.00
61472;BME280;47337;54.068;12.114;2023-05-20T01:19:01;102373.78;;;9.10;100.00
61472;BME280;47337;54.068;12.114;2023-05-20T01:21:31;102370.44;;;9.14;100.00
61472;BME280;47337;54.068;12.114;2023-05-20T01:24:02;102369.44;;;9.10;100.00
61472;BME280;47337;54.068;12.114;2023-05-20T01:26:30;102375.44;;;9.08;100.00
61472;BME280;47337;54.068;12.114;2023-05-20T01:28:57;102377.34;;;9.12;100.00
61472;BME280;47337;54.068;12.114;2023-05-20T01:31:31;102375.38;;;9.06;100.00
61472;BME280;47337;54.068;12.114;2023-05-20T01:33:58;102371.16;;;9.10;100.00
61472;BME280;47337;54.068;12.114;2023-05-20T01:36:25;102379.78;;;9.07;100.00
61472;BME280;47337;54.068;12.114;2023-05-20T01:38:52;102382.13;;;9.01;100.00
61472;BME280;47337;54.068;12.114;2023-05-20T01:41:23;102380.69;;;9.08;100.00
61472;BME280;47337;54.068;12.114;2023-05-20T01:43:54;102383.22;;;9.06;100.00
61472;BME280;47337;54.068;12.114;2023-05-20T01:46:22;102382.25;;;9.04;100.00
61472;BME280;47337;54.068;12.114;2023-05-20T01:48:48;102375.31;;;9.05;100.00
61472;BME280;47337;54.068;12.114;2023-05-20T01:51:13;102374.16;;;8.98;100.00
61472;BME280;47337;54.068;12.114;2023-05-20T01:53:38;102375.81;;;8.96;100.00
61472;BME280;47337;54.068;12.114;2023-05-20T01:56:04;102383.53;;;8.93;100.00
61472;BME280;47337;54.068;12.114;2023-05-20T01:58:30;102384.50;;;8.95;100.00
61472;BME280;47337;54.068;12.114;2023-05-20T02:00:55;102385.41;;;8.96;100.00
61472;BME280;47337;54.068;12.114;2023-05-20T02:03:23;102378.50;;;8.98;100.00
61472;BME280;47337;54.068;12.114;2023-05-20T02:05:51;102376.50;;;8.92;100.00
61472;BME280;47337;54.068;12.114;2023-05-20T02:08:16;102381.56;;;8.88;100.00
61472;BME280;47337;54.068;12.114;2023-05-20T02:10:47;102384.72;;;8.80;100.00
61472;BME280;47337;54.068;12.114;2023-05-20T02:13:12;102389.44;;;8.68;100.00
61472;BME280;47337;54.068;12.114;2023-05-20T02:15:40;102403.69;;;8.75;100.00
61472;BME280;47337;54.068;12.114;2023-05-20T02:18:06;102391.63;;;8.78;100.00
61472;BME280;47337;54.068;12.114;2023-05-20T02:20:34;102407.47;;;8.81;100.00
61472;BME280;47337;54.068;12.114;2023-05-20T02:23:00;102402.66;;;8.71;100.00
61472;BME280;47337;54.068;12.114;2023-05-20T02:25:30;102406.44;;;8.78;100.00
61472;BME280;47337;54.068;12.114;2023-05-20T02:27:59;102405.28;;;8.71;100.00
61472;BME280;47337;54.068;12.114;2023-05-20T02:30:25;102415.13;;;8.77;100.00
61472;BME280;47337;54.068;12.114;2023-05-20T02:32:51;102415.97;;;8.76;100.00
61472;BME280;47337;54.068;12.114;2023-05-20T02:35:16;102413.13;;;8.71;100.00
61472;BME280;47337;54.068;12.114;2023-05-20T02:37:42;102411.63;;;8.76;100.00
61472;BME280;47337;54.068;12.114;2023-05-20T02:40:09;102407.78;;;8.68;100.00
61472;BME280;47337;54.068;12.114;2023-05-20T02:42:35;102416.50;;;8.69;100.00
61472;BME280;47337;54.068;12.114;2023-05-20T02:45:00;102409.94;;;8.59;100.00
61472;BME280;47337;54.068;12.114;2023-05-20T02:47:28;102411.22;;;8.67;100.00
61472;BME280;47337;54.068;12.114;2023-05-20T02:49:56;102410.78;;;8.58;100.00
61472;BME280;47337;54.068;12.114;2023-05-20T02:52:21;102413.28;;;8.55;100.00
61472;BME280;47337;54.068;12.114;2023-05-20T02:54:49;102420.56;;;8.43;100.00
61472;BME280;47337;54.068;12.114;2023-05-20T02:57:14;102414.84;;;8.52;100.00
61472;BME280;47337;54.068;12.114;2023-05-20T02:59:40;102427.13;;;8.53;100.00
61472;BME280;47337;54.068;12.114;2023-05-20T03:02:06;102428.56;;;8.46;100.00
61472;BME280;47337;54.068;12.114;2023-05-20T03:04:34;102425.59;;;8.38;100.00
61472;BME280;47337;54.068;12.114;2023-05-20T03:07:05;102436.13;;;8.40;100.00
61472;BME280;47337;54.068;12.114;2023-05-20T03:09:33;102440.38;;;8.38;100.00
61472;BME280;47337;54.068;12.114;2023-05-20T03:11:58;102443.97;;;8.40;100.00
61472;BME280;47337;54.068;12.114;2023-05-20T03:14:24;102456.38;;;8.44;100.00
61472;BME280;47337;54.068;12.114;2023-05-20T03:16:49;102446.59;;;8.59;100.00
61472;BME280;47337;54.068;12.114;2023-05-20T03:19:14;102449.38;;;8.62;100.00
61472;BME280;47337;54.068;12.114;2023-05-20T03:21:40;102452.81;;;8.61;100.00
61472;BME280;47337;54.068;12.114;2023-05-20T03:24:11;102452.88;;;8.63;100.00
61472;BME280;47337;54.068;12.114;2023-05-20T03:26:38;102459.44;;;8.72;100.00
61472;BME280;47337;54.068;12.114;2023-05-20T03:29:08;102452.28;;;8.68;100.00
61472;BME280;47337;54.068;12.114;2023-05-20T03:31:36;102462.13;;;8.74;100.00
61472;BME280;47337;54.068;12.114;2023-05-20T03:34:01;102463.91;;;8.75;100.00
61472;BME280;47337;54.068;12.114;2023-05-20T03:36:27;102465.47;;;8.91;100.00
61472;BME280;47337;54.068;12.114;2023-05-20T03:38:55;102457.34;;;9.04;100.00
61472;BME280;47337;54.068;12.114;2023-05-20T03:41:20;102460.66;;;9.00;100.00
61472;BME280;47337;54.068;12.114;2023-05-20T03:43:46;102466.78;;;9.20;100.00
61472;BME280;47337;54.068;12.114;2023-05-20T03:46:14;102461.84;;;9.69;100.00
61472;BME280;47337;54.068;12.114;2023-05-20T03:48:39;102465.56;;;10.17;100.00
61472;BME280;47337;54.068;12.114;2023-05-20T03:51:07;102446.84;;;10.76;100.00
61472;BME280;47337;54.068;12.114;2023-05-20T03:53:35;102444.22;;;11.25;100.00
61472;BME280;47337;54.068;12.114;2023-05-20T03:56:03;102415.88;;;11.42;100.00
61472;BME280;47337;54.068;12.114;2023-05-20T03:58:31;102385.59;;;11.28;100.00
61472;BME280;47337;54.068;12.114;2023-05-20T04:00:56;102377.56;;;11.50;100.00
61472;BME280;47337;54.068;12.114;2023-05-20T04:03:22;102365.56;;;11.85;100.00
61472;BME280;47337;54.068;12.114;2023-05-20T04:05:52;102333.84;;;12.10;100.00
61472;BME280;47337;54.068;12.114;2023-05-20T04:08:18;102329.84;;;12.55;100.00
61472;BME280;47337;54.068;12.114;2023-05-20T04:10:43;102294.22;;;13.03;100.00
61472;BME280;47337;54.068;12.114;2023-05-20T04:13:11;102267.06;;;13.42;100.00
61472;BME280;47337;54.068;12.114;2023-05-20T04:15:37;102252.34;;;13.15;100.00
61472;BME280;47337;54.068;12.114;2023-05-20T04:18:05;102241.34;;;12.97;100.00
61472;BME280;47337;54.068;12.114;2023-05-20T04:20:31;102242.09;;;13.28;100.00
61472;BME280;47337;54.068;12.114;2023-05-20T04:22:56;102243.06;;;13.31;100.00
61472;BME280;47337;54.068;12.114;2023-05-20T04:25:22;102227.50;;;13.84;100.00
61472;BME280;47337;54.068;12.114;2023-05-20T04:27:48;102218.78;;;13.47;100.00
61472;BME280;47337;54.068;12.114;2023-05-20T04:30:14;102220.75;;;14.00;100.00
61472;BME280;47337;54.068;12.114;2023-05-20T04:32:40;102199.63;;;14.00;99.07
61472;BME280;47337;54.068;12.114;2023-05-20T04:35:06;102177.88;;;14.59;97.50
61472;BME280;47337;54.068;12.114;2023-05-20T04:37:37;102159.63;;;14.76;94.12
61472;BME280;47337;54.068;12.114;2023-05-20T04:40:04;102151.53;;;15.95;92.16
61472;BME280;47337;54.068;12.114;2023-05-20T04:42:31;102104.59;;;15.82;88.69
61472;BME280;47337;54.068;12.114;2023-05-20T04:44:58;102096.22;;;16.35;86.65
61472;BME280;47337;54.068;12.114;2023-05-20T04:47:26;102067.63;;;17.29;83.84
61472;BME280;47337;54.068;12.114;2023-05-20T04:49:52;102025.13;;;17.20;81.29
61472;BME280;47337;54.068;12.114;2023-05-20T04:52:17;102016.41;;;17.73;79.34
61472;BME280;47337;54.068;12.114;2023-05-20T04:54:43;102037.41;;;16.92;80.29
61472;BME280;47337;54.068;12.114;2023-05-20T04:57:11;102020.69;;;17.11;79.11
61472;BME280;47337;54.068;12.114;2023-05-20T04:59:36;102031.47;;;18.27;77.67
61472;BME280;47337;54.068;12.114;2023-05-20T05:02:01;102002.25;;;17.75;76.85
61472;BME280;47337;54.068;12.114;2023-05-20T05:04:29;101989.84;;;18.31;75.30
61472;BME280;47337;54.068;12.114;2023-05-20T05:06:55;101962.34;;;18.41;73.49
61472;BME280;47337;54.068;12.114;2023-05-20T05:09:20;101983.53;;;18.68;73.47
61472;BME280;47337;54.068;12.114;2023-05-20T05:11:46;101985.41;;;18.33;73.60
61472;BME280;47337;54.068;12.114;2023-05-20T05:14:12;101960.38;;;18.90;71.73
61472;BME280;47337;54.068;12.114;2023-05-20T05:16:37;101934.59;;;19.01;70.51
61472;BME280;47337;54.068;12.114;2023-05-20T05:19:02;101951.28;;;19.32;70.39
61472;BME280;47337;54.068;12.114;2023-05-20T05:21:28;101955.59;;;19.54;69.92
61472;BME280;47337;54.068;12.114;2023-05-20T05:23:56;101911.50;;;20.13;67.84
61472;BME280;47337;54.068;12.114;2023-05-20T05:26:22;101889.25;;;20.14;66.57
61472;BME280;47337;54.068;12.114;2023-05-20T05:28:49;101881.75;;;20.53;65.59
61472;BME280;47337;54.068;12.114;2023-05-20T05:31:17;101862.53;;;20.20;65.08
61472;BME280;47337;54.068;12.114;2023-05-20T05:33:44;101871.75;;;20.67;64.92
61472;BME280;47337;54.068;12.114;2023-05-20T05:36:10;101843.91;;;20.17;64.25
61472;BME280;47337;54.068;12.114;2023-05-20T05:38:35;101845.94;;;20.67;63.94
61472;BME280;47337;54.068;12.114;2023-05-20T05:41:01;101854.38;;;20.98;63.48
61472;BME280;47337;54.068;12.114;2023-05-20T05:43:27;101784.56;;;20.00;62.30
61472;BME280;47337;54.068;12.114;2023-05-20T05:45:57;101838.22;;;20.46;63.27
61472;BME280;47337;54.068;12.114;2023-05-20T05:48:22;101827.31;;;20.66;62.65
61472;BME280;47337;54.068;12.114;2023-05-20T05:50:48;101823.31;;;20.28;62.62
61472;BME280;47337;54.068;12.114;2023-05-20T05:53:13;101848.53;;;19.04;64.53
61472;BME280;47337;54.068;12.114;2023-05-20T05:55:41;101859.31;;;18.82;65.38
61472;BME280;47337;54.068;12.114;2023-05-20T05:58:06;101900.00;;;18.99;65.67
61472;BME280;47337;54.068;12.114;2023-05-20T06:00:32;101848.09;;;18.10;65.41
61472;BME280;47337;54.068;12.114;2023-05-20T06:02:57;101926.09;;;17.36;68.15
61472;BME280;47337;54.068;12.114;2023-05-20T06:05:23;101955.16;;;16.95;69.67
61472;BME280;47337;54.068;12.114;2023-05-20T06:07:48;101994.94;;;16.83;70.58
61472;BME280;47337;54.068;12.114;2023-05-20T06:10:13;102004.25;;;16.19;71.72
61472;BME280;47337;54.068;12.114;2023-05-20T06:12:41;102017.47;;;16.17;72.39
61472;BME280;47337;54.068;12.114;2023-05-20T06:15:07;102046.72;;;16.29;72.79
61472;BME280;47337;54.068;12.114;2023-05-20T06:17:32;102071.69;;;16.60;73.09
61472;BME280;47337;54.068;12.114;2023-05-20T06:19:58;102062.06;;;16.71;72.84
61472;BME280;47337;54.068;12.114;2023-05-20T06:22:24;102048.78;;;16.74;72.59
61472;BME280;47337;54.068;12.114;2023-05-20T06:24:52;102064.81;;;16.96;72.71
61472;BME280;47337;54.068;12.114;2023-05-20T06:27:17;102040.03;;;16.89;71.97
61472;BME280;47337;54.068;12.114;2023-05-20T06:29:45;102047.00;;;16.63;72.20
61472;BME280;47337;54.068;12.114;2023-05-20T06:32:11;102045.91;;;16.39;72.28
61472;BME280;47337;54.068;12.114;2023-05-20T06:34:36;102052.97;;;16.39;72.52
61472;BME280;47337;54.068;12.114;2023-05-20T06:37:01;102069.63;;;16.23;73.31
61472;BME280;47337;54.068;12.114;2023-05-20T06:39:27;102078.44;;;16.17;73.86
61472;BME280;47337;54.068;12.114;2023-05-20T06:41:52;102106.72;;;16.23;74.72
61472;BME280;47337;54.068;12.114;2023-05-20T06:44:18;102105.09;;;16.37;74.79
61472;BME280;47337;54.068;12.114;2023-05-20T06:46:43;102087.72;;;15.74;75.27
61472;BME280;47337;54.068;12.114;2023-05-20T06:49:09;102113.44;;;15.84;75.66
61472;BME280;47337;54.068;12.114;2023-05-20T06:51:39;102141.56;;;15.73;77.23
61472;BME280;47337;54.068;12.114;2023-05-20T06:54:04;102158.16;;;15.60;78.06
61472;BME280;47337;54.068;12.114;2023-05-20T06:56:32;102168.09;;;15.79;78.68
61472;BME280;47337;54.068;12.114;2023-05-20T06:58:57;102174.41;;;15.90;78.70
61472;BME280;47337;54.068;12.114;2023-05-20T07:01:23;102175.94;;;15.70;79.68
61472;BME280;47337;54.068;12.114;2023-05-20T07:03:58;102164.47;;;16.59;78.87
61472;BME280;47337;54.068;12.114;2023-05-20T07:06:23;102145.31;;;16.95;77.46
61472;BME280;47337;54.068;12.114;2023-05-20T07:08:51;102120.38;;;16.68;76.97
61472;BME280;47337;54.068;12.114;2023-05-20T07:11:16;102133.19;;;17.51;76.60
61472;BME280;47337;54.068;12.114;2023-05-20T07:13:41;102083.63;;;17.50;75.15
61472;BME280;47337;54.068;12.114;2023-05-20T07:16:07;102055.34;;;17.59;73.92
61472;BME280;47337;54.068;12.114;2023-05-20T07:18:32;102012.91;;;17.87;71.64
61472;BME280;47337;54.068;12.114;2023-05-20T07:20:58;101982.78;;;17.63;71.13
61472;BME280;47337;54.068;12.114;2023-05-20T07:23:25;101966.78;;;17.50;70.72
61472;BME280;47337;54.068;12.114;2023-05-20T07:25:52;101972.78;;;16.78;71.50
61472;BME280;47337;54.068;12.114;2023-05-20T07:28:19;101982.59;;;16.93;71.70
61472;BME280;47337;54.068;12.114;2023-05-20T07:30:47;101994.28;;;17.74;71.30
61472;BME280;47337;54.068;12.114;2023-05-20T07:33:20;101946.34;;;18.51;68.58
61472;BME280;47337;54.068;12.114;2023-05-20T07:35:45;101898.59;;;18.03;67.31
61472;BME280;47337;54.068;12.114;2023-05-20T07:38:11;101867.66;;;17.27;67.44
61472;BME280;47337;54.068;12.114;2023-05-20T07:40:38;101878.25;;;16.98;68.20
61472;BME280;47337;54.068;12.114;2023-05-20T07:43:07;101913.69;;;17.35;68.30
61472;BME280;47337;54.068;12.114;2023-05-20T07:45:36;101895.06;;;17.02;68.42
61472;BME280;47337;54.068;12.114;2023-05-20T07:48:03;101912.78;;;17.23;68.78
61472;BME280;47337;54.068;12.114;2023-05-20T07:50:28;101934.06;;;17.58;68.85
61472;BME280;47337;54.068;12.114;2023-05-20T07:52:54;101921.66;;;17.55;68.31
61472;BME280;47337;54.068;12.114;2023-05-20T07:55:19;101924.31;;;17.50;68.28
61472;BME280;47337;54.068;12.114;2023-05-20T07:57:45;101942.94;;;17.64;68.64
61472;BME280;47337;54.068;12.114;2023-05-20T08:00:10;101941.97;;;18.31;67.88
61472;BME280;47337;54.068;12.114;2023-05-20T08:02:37;101910.91;;;18.36;66.90
61472;BME280;47337;54.068;12.114;2023-05-20T08:05:03;101921.34;;;18.90;66.73
61472;BME280;47337;54.068;12.114;2023-05-20T08:07:29;101907.78;;;19.33;66.31
61472;BME280;47337;54.068;12.114;2023-05-20T08:09:55;101904.97;;;19.53;65.78
61472;BME280;47337;54.068;12.114;2023-05-20T08:12:20;101863.75;;;18.80;65.54
61472;BME280;47337;54.068;12.114;2023-05-20T08:14:46;101900.41;;;17.93;67.06
61472;BME280;47337;54.068;12.114;2023-05-20T08:17:11;101910.09;;;17.18;68.90
61472;BME280;47337;54.068;12.114;2023-05-20T08:19:39;101951.72;;;17.33;69.78
61472;BME280;47337;54.068;12.114;2023-05-20T08:22:04;101984.53;;;18.15;69.63
61472;BME280;47337;54.068;12.114;2023-05-20T08:24:30;101970.31;;;18.41;68.91
61472;BME280;47337;54.068;12.114;2023-05-20T08:26:56;101964.13;;;18.33;68.87
61472;BME280;47337;54.068;12.114;2023-05-20T08:29:23;101972.06;;;18.46;68.61
61472;BME280;47337;54.068;12.114;2023-05-20T08:31:48;101975.38;;;19.08;68.52
61472;BME280;47337;54.068;12.114;2023-05-20T08:34:16;101928.44;;;18.96;67.20
61472;BME280;47337;54.068;12.114;2023-05-20T08:36:41;101912.44;;;18.97;66.95
61472;BME280;47337;54.068;12.114;2023-05-20T08:39:11;101916.16;;;18.69;67.30
61472;BME280;47337;54.068;12.114;2023-05-20T08:41:37;101941.94;;;18.43;68.24
61472;BME280;47337;54.068;12.114;2023-05-20T08:44:06;101956.19;;;18.20;68.88
61472;BME280;47337;54.068;12.114;2023-05-20T08:46:33;101964.06;;;18.63;68.78
61472;BME280;47337;54.068;12.114;2023-05-20T08:48:59;101957.56;;;19.19;68.15
61472;BME280;47337;54.068;12.114;2023-05-20T08:51:26;101916.81;;;19.08;67.14
61472;BME280;47337;54.068;12.114;2023-05-20T08:53:52;101936.25;;;19.22;67.54
61472;BME280;47337;54.068;12.114;2023-05-20T08:56:18;101948.06;;;18.68;68.10
61472;BME280;47337;54.068;12.114;2023-05-20T08:58:44;101933.84;;;18.76;67.90
61472;BME280;47337;54.068;12.114;2023-05-20T09:01:11;101928.56;;;18.65;67.88
61472;BME280;47337;54.068;12.114;2023-05-20T09:03:36;101904.72;;;18.43;67.59
61472;BME280;47337;54.068;12.114;2023-05-20T09:06:03;101939.03;;;19.00;67.90
61472;BME280;47337;54.068;12.114;2023-05-20T09:08:29;101941.34;;;19.58;67.17
61472;BME280;47337;54.068;12.114;2023-05-20T09:10:58;101913.28;;;19.06;66.95
61472;BME280;47337;54.068;12.114;2023-05-20T09:13:26;101906.38;;;18.74;67.43
61472;BME280;47337;54.068;12.114;2023-05-20T09:15:51;101891.41;;;18.41;67.42
61472;BME280;47337;54.068;12.114;2023-05-20T09:18:17;101926.00;;;18.34;68.38
61472;BME280;47337;54.068;12.114;2023-05-20T09:20:50;101926.94;;;18.20;68.39
61472;BME280;47337;54.068;12.114;2023-05-20T09:23:18;101944.66;;;18.12;68.72
61472;BME280;47337;54.068;12.114;2023-05-20T09:25:53;101939.38;;;17.91;69.58
61472;BME280;47337;54.068;12.114;2023-05-20T09:28:21;101963.28;;;18.03;69.95
61472;BME280;47337;54.068;12.114;2023-05-20T09:30:48;101954.44;;;17.92;69.65
61472;BME280;47337;54.068;12.114;2023-05-20T09:33:16;101964.19;;;17.88;69.83
61472;BME280;47337;54.068;12.114;2023-05-20T09:35:42;101969.44;;;17.52;70.67
61472;BME280;47337;54.068;12.114;2023-05-20T09:38:08;101987.16;;;17.47;71.38
61472;BME280;47337;54.068;12.114;2023-05-20T09:40:35;102011.91;;;17.37;71.99
61472;BME280;47337;54.068;12.114;2023-05-20T09:43:06;102006.66;;;17.58;71.72
61472;BME280;47337;54.068;12.114;2023-05-20T09:45:32;102004.00;;;17.56;71.62
61472;BME280;47337;54.068;12.114;2023-05-20T09:47:59;102015.53;;;18.13;71.29
61472;BME280;47337;54.068;12.114;2023-05-20T09:50:26;101981.00;;;17.98;70.74
61472;BME280;47337;54.068;12.114;2023-05-20T09:52:53;101982.75;;;18.33;70.46
61472;BME280;47337;54.068;12.114;2023-05-20T09:55:25;101978.31;;;18.15;70.39
61472;BME280;47337;54.068;12.114;2023-05-20T09:57:52;101972.06;;;18.61;69.81
61472;BME280;47337;54.068;12.114;2023-05-20T10:00:18;101964.97;;;18.50;69.42
61472;BME280;47337;54.068;12.114;2023-05-20T10:02:48;101957.00;;;18.33;69.18
61472;BME280;47337;54.068;12.114;2023-05-20T10:05:20;101952.63;;;18.12;69.41
61472;BME280;47337;54.068;12.114;2023-05-20T10:21:40;101942.84;;;18.25;69.68
61472;BME280;47337;54.068;12.114;2023-05-20T10:24:07;101965.94;;;18.03;70.36
61472;BME280;47337;54.068;12.114;2023-05-20T10:26:36;101947.38;;;17.79;70.15
61472;BME280;47337;54.068;12.114;2023-05-20T10:29:17;101950.81;;;17.28;71.14
61472;BME280;47337;54.068;12.114;2023-05-20T10:31:47;101993.34;;;17.41;71.94
61472;BME280;47337;54.068;12.114;2023-05-20T10:34:19;101996.94;;;17.63;72.29
61472;BME280;47337;54.068;12.114;2023-05-20T10:39:27;101982.78;;;17.96;71.24
61472;BME280;47337;54.068;12.114;2023-05-20T10:42:07;101980.09;;;18.02;71.52
61472;BME280;47337;54.068;12.114;2023-05-20T10:44:46;101964.13;;;18.29;70.92
61472;BME280;47337;54.068;12.114;2023-05-20T10:47:16;101931.38;;;18.18;69.91
61472;BME280;47337;54.068;12.114;2023-05-20T10:49:48;101939.38;;;17.86;70.48
61472;BME280;47337;54.068;12.114;2023-05-20T10:52:15;101943.75;;;18.32;69.95
61472;BME280;47337;54.068;12.114;2023-05-20T10:54:57;101905.44;;;18.78;68.71
61472;BME280;47337;54.068;12.114;2023-05-20T10:57:26;101880.53;;;18.91;67.93
61472;BME280;47337;54.068;12.114;2023-05-20T10:59:51;101859.19;;;18.97;67.36
61472;BME280;47337;54.068;12.114;2023-05-20T11:02:18;101848.59;;;18.94;67.05
61472;BME280;47337;54.068;12.114;2023-05-20T11:04:44;101850.16;;;19.23;66.73
61472;BME280;47337;54.068;12.114;2023-05-20T11:07:12;101834.34;;;19.00;66.45
61472;BME280;47337;54.068;12.114;2023-05-20T11:09:38;101830.78;;;19.06;66.31
61472;BME280;47337;54.068;12.114;2023-05-20T11:12:06;101829.00;;;19.03;66.43
61472;BME280;47337;54.068;12.114;2023-05-20T11:14:31;101799.31;;;19.52;65.35
61472;BME280;47337;54.068;12.114;2023-05-20T11:16:57;101790.50;;;19.48;65.12
61472;BME280;47337;54.068;12.114;2023-05-20T11:19:26;101810.78;;;19.60;65.24
61472;BME280;47337;54.068;12.114;2023-05-20T11:21:55;101787.41;;;19.85;64.69
61472;BME280;47337;54.068;12.114;2023-05-20T11:24:25;101770.47;;;19.00;65.25
61472;BME280;47337;54.068;12.114;2023-05-20T11:26:51;101779.22;;;19.14;65.19
61472;BME280;47337;54.068;12.114;2023-05-20T11:29:19;101803.00;;;19.37;65.74
61472;BME280;47337;54.068;12.114;2023-05-20T11:31:48;101761.78;;;18.77;65.15
61472;BME280;47337;54.068;12.114;2023-05-20T11:34:15;101797.16;;;18.94;66.13
61472;BME280;47337;54.068;12.114;2023-05-20T11:36:41;101801.06;;;19.54;65.17
61472;BME280;47337;54.068;12.114;2023-05-20T11:39:09;101766.13;;;18.88;65.30
61472;BME280;47337;54.068;12.114;2023-05-20T11:41:37;101778.63;;;18.77;65.68
61472;BME280;47337;54.068;12.114;2023-05-20T11:44:03;101790.28;;;18.62;66.12
61472;BME280;47337;54.068;12.114;2023-05-20T11:46:29;101811.03;;;19.29;65.90
61472;BME280;47337;54.068;12.114;2023-05-20T11:48:58;101784.28;;;19.43;65.20
61472;BME280;47337;54.068;12.114;2023-05-20T11:51:28;101770.25;;;19.24;65.10
61472;BME280;47337;54.068;12.114;2023-05-20T11:54:01;101803.19;;;19.13;65.87
61472;BME280;47337;54.068;12.114;2023-05-20T11:56:30;101788.22;;;18.99;65.60
61472;BME280;47337;54.068;12.114;2023-05-20T11:58:58;101817.38;;;19.15;65.92
61472;BME280;47337;54.068;12.114;2023-05-20T12:01:24;101790.06;;;18.91;66.13
61472;BME280;47337;54.068;12.114;2023-05-20T12:03:52;101826.09;;;19.35;66.02
61472;BME280;47337;54.068;12.114;2023-05-20T12:06:18;101798.19;;;18.73;65.93
61472;BME280;47337;54.068;12.114;2023-05-20T12:08:44;101810.66;;;18.56;66.66
61472;BME280;47337;54.068;12.114;2023-05-20T12:11:15;101800.94;;;18.49;66.72
61472;BME280;47337;54.068;12.114;2023-05-20T12:13:48;101824.81;;;18.67;66.82
61472;BME280;47337;54.068;12.114;2023-05-20T12:16:13;101833.53;;;18.87;66.65
61472;BME280;47337;54.068;12.114;2023-05-20T12:18:38;101827.72;;;19.54;65.94
61472;BME280;47337;54.068;12.114;2023-05-20T12:21:04;101812.50;;;19.67;65.41
61472;BME280;47337;54.068;12.114;2023-05-20T12:23:31;101783.75;;;19.92;64.35
61472;BME280;47337;54.068;12.114;2023-05-20T12:26:02;101766.66;;;19.28;64.64
61472;BME280;47337;54.068;12.114;2023-05-20T12:28:27;101771.31;;;19.07;64.90
61472;BME280;47337;54.068;12.114;2023-05-20T12:30:52;101783.78;;;18.98;65.33
61472;BME280;47337;54.068;12.114;2023-05-20T12:33:23;101787.38;;;18.93;65.64
61472;BME280;47337;54.068;12.114;2023-05-20T12:35:48;101771.88;;;19.39;65.13
61472;BME280;47337;54.068;12.114;2023-05-20T12:38:14;101765.16;;;19.89;64.17
61472;BME280;47337;54.068;12.114;2023-05-20T12:40:39;101725.16;;;19.90;63.12
61472;BME280;47337;54.068;12.114;2023-05-20T12:43:05;101730.22;;;20.10;63.09
61472;BME280;47337;54.068;12.114;2023-05-20T12:45:30;101694.69;;;20.09;62.03
61472;BME280;47337;54.068;12.114;2023-05-20T12:47:56;101688.78;;;20.49;61.66
61472;BME280;47337;54.068;12.114;2023-05-20T12:50:23;101652.47;;;19.79;61.32
61472;BME280;47337;54.068;12.114;2023-05-20T12:52:50;101655.44;;;20.18;61.07
61472;BME280;47337;54.068;12.114;2023-05-20T12:55:16;101665.31;;;20.69;60.67